createdAt,value
2023-04-09T00:00:34.361Z,25.64
2023-04-09T00:01:34.426Z,25.64
2023-04-09T00:02:34.417Z,25.65
2023-04-09T00:03:34.562Z,25.64
2023-04-09T00:04:34.448Z,25.70
2023-04-09T00:05:34.432Z,25.63
2023-04-09T00:06:34.435Z,25.61
2023-04-09T00:07:34.464Z,25.67
2023-04-09T00:08:34.478Z,25.70
2023-04-09T00:09:34.500Z,25.67
2023-04-09T00:10:34.480Z,25.67
2023-04-09T00:11:34.515Z,25.70
2023-04-09T00:12:34.548Z,25.68
2023-04-09T00:13:39.044Z,25.71
2023-04-09T00:14:35.533Z,25.70
2023-04-09T00:15:34.497Z,25.67
2023-04-09T00:16:34.540Z,25.76
2023-04-09T00:17:34.504Z,25.74
2023-04-09T00:18:34.462Z,25.69
2023-04-09T00:19:34.424Z,25.70
2023-04-09T00:20:34.402Z,25.70
2023-04-09T00:21:34.393Z,25.71
2023-04-09T00:22:34.356Z,25.70
2023-04-09T00:23:34.343Z,25.71
2023-04-09T00:24:34.322Z,25.74
2023-04-09T00:25:34.292Z,25.73
2023-04-09T00:26:34.283Z,25.73
2023-04-09T00:27:34.254Z,25.71
2023-04-09T00:28:34.238Z,25.72
2023-04-09T00:29:34.219Z,25.71
2023-04-09T00:30:34.178Z,25.74
2023-04-09T00:31:34.218Z,25.74
2023-04-09T00:32:34.220Z,25.75
2023-04-09T00:33:34.228Z,25.71
2023-04-09T00:34:34.250Z,25.73
2023-04-09T00:35:34.323Z,25.73
2023-04-09T00:36:34.278Z,25.76
2023-04-09T00:37:34.293Z,25.80
2023-04-09T00:38:34.297Z,25.70
2023-04-09T00:39:34.320Z,25.79
2023-04-09T00:40:34.341Z,25.77
2023-04-09T00:41:34.349Z,25.76
2023-04-09T00:42:34.361Z,25.78
2023-04-09T00:43:34.388Z,25.77
2023-04-09T00:44:34.424Z,25.76
2023-04-09T00:45:34.469Z,25.78
2023-04-09T00:46:34.432Z,25.71
2023-04-09T00:47:34.473Z,25.80
2023-04-09T00:48:34.457Z,25.78
2023-04-09T00:49:34.475Z,25.79
2023-04-09T00:50:34.474Z,25.74
2023-04-09T00:51:34.488Z,25.80
2023-04-09T00:52:34.521Z,25.80
2023-04-09T00:53:34.511Z,25.77
2023-04-09T00:54:34.538Z,25.74
2023-04-09T00:55:34.565Z,25.87
2023-04-09T00:56:34.559Z,25.81
2023-04-09T00:57:34.600Z,25.78
2023-04-09T00:58:34.608Z,25.77
2023-04-09T00:59:34.635Z,25.80
2023-04-09T01:00:34.636Z,25.81
2023-04-09T01:01:34.733Z,25.83
2023-04-09T01:02:34.919Z,25.78
2023-04-09T01:03:34.891Z,25.81
2023-04-09T01:04:34.698Z,25.78
2023-04-09T01:05:34.717Z,25.86
2023-04-09T01:06:34.707Z,25.80
2023-04-09T01:07:34.730Z,25.80
2023-04-09T01:08:34.736Z,25.78
2023-04-09T01:09:34.752Z,25.84
2023-04-09T01:10:34.791Z,25.83
2023-04-09T01:11:34.773Z,25.83
2023-04-09T01:12:34.803Z,25.81
2023-04-09T01:13:34.804Z,25.82
2023-04-09T01:14:34.832Z,25.81
2023-04-09T01:15:34.844Z,25.84
2023-04-09T01:16:34.884Z,25.84
2023-04-09T01:17:34.956Z,25.86
2023-04-09T01:18:34.883Z,25.83
2023-04-09T01:19:34.893Z,25.84
2023-04-09T01:20:34.914Z,25.86
2023-04-09T01:21:34.932Z,25.87
2023-04-09T01:22:34.956Z,25.85
2023-04-09T01:23:34.985Z,25.87
2023-04-09T01:24:35.019Z,25.89
2023-04-09T01:25:35.030Z,25.87
2023-04-09T01:26:35.048Z,25.87
2023-04-09T01:27:35.026Z,25.88
2023-04-09T01:28:35.010Z,25.96
2023-04-09T01:29:34.988Z,25.90
2023-04-09T01:30:35.074Z,25.88
2023-04-09T01:31:34.951Z,25.90
2023-04-09T01:32:35.029Z,25.87
2023-04-09T01:33:34.912Z,25.82
2023-04-09T01:34:34.897Z,25.93
2023-04-09T01:35:34.897Z,25.86
2023-04-09T01:36:34.850Z,25.91
2023-04-09T01:37:34.846Z,25.93
2023-04-09T01:38:34.804Z,25.90
2023-04-09T01:39:34.806Z,25.92
2023-04-09T01:40:34.765Z,25.85
2023-04-09T01:41:34.766Z,25.87
2023-04-09T01:42:34.780Z,25.88
2023-04-09T01:43:34.804Z,25.91
2023-04-09T01:44:34.817Z,25.91
2023-04-09T01:45:34.856Z,25.90
2023-04-09T01:46:34.934Z,25.90
2023-04-09T01:47:34.927Z,25.92
2023-04-09T01:48:34.906Z,25.92
2023-04-09T01:49:34.913Z,25.91
2023-04-09T01:50:34.964Z,25.99
2023-04-09T01:51:34.977Z,25.94
2023-04-09T01:52:34.969Z,25.92
2023-04-09T01:53:35.002Z,25.91
2023-04-09T01:54:35.020Z,25.92
2023-04-09T01:55:35.066Z,25.91
2023-04-09T01:56:35.076Z,25.91
2023-04-09T01:57:35.068Z,25.92
2023-04-09T01:58:35.094Z,25.91
2023-04-09T01:59:35.110Z,25.94
2023-04-09T02:00:35.129Z,25.88
2023-04-09T02:01:35.212Z,25.94
2023-04-09T02:02:35.326Z,25.95
2023-04-09T02:03:35.221Z,25.90
2023-04-09T02:04:35.200Z,25.94
2023-04-09T02:05:35.246Z,26.01
2023-04-09T02:06:35.261Z,25.92
2023-04-09T02:07:35.267Z,25.92
2023-04-09T02:08:35.312Z,25.97
2023-04-09T02:09:35.313Z,25.94
2023-04-09T02:10:35.357Z,25.96
2023-04-09T02:11:35.362Z,25.98
2023-04-09T02:12:35.393Z,25.95
2023-04-09T02:13:35.412Z,25.95
2023-04-09T02:14:35.433Z,25.91
2023-04-09T02:15:35.465Z,26.00
2023-04-09T02:16:35.456Z,25.94
2023-04-09T02:17:35.486Z,25.98
2023-04-09T02:18:35.515Z,25.98
2023-04-09T02:19:35.512Z,25.97
2023-04-09T02:20:35.549Z,25.95
2023-04-09T02:21:35.561Z,25.99
2023-04-09T02:22:35.560Z,25.98
2023-04-09T02:23:35.579Z,25.97
2023-04-09T02:24:35.617Z,25.97
2023-04-09T02:25:35.630Z,25.97
2023-04-09T02:26:35.647Z,26.00
2023-04-09T02:27:35.655Z,25.94
2023-04-09T02:28:35.706Z,25.94
2023-04-09T02:29:35.729Z,25.97
2023-04-09T02:30:35.738Z,25.97
2023-04-09T02:31:35.836Z,25.98
2023-04-09T02:32:35.804Z,25.98
2023-04-09T02:33:35.815Z,25.94
2023-04-09T02:34:35.778Z,25.95
2023-04-09T02:35:35.804Z,25.97
2023-04-09T02:36:35.722Z,25.97
2023-04-09T02:37:35.699Z,25.98
2023-04-09T02:38:35.673Z,26.01
2023-04-09T02:39:35.645Z,25.95
2023-04-09T02:40:35.626Z,25.97
2023-04-09T02:41:35.585Z,25.98
2023-04-09T02:42:35.570Z,25.95
2023-04-09T02:43:35.532Z,25.98
2023-04-09T02:44:35.517Z,25.76
2023-04-09T02:45:35.478Z,25.59
2023-04-09T02:46:35.530Z,25.27
2023-04-09T02:47:35.511Z,25.31
2023-04-09T02:48:35.528Z,24.89
2023-04-09T02:49:35.553Z,24.50
2023-04-09T02:50:35.609Z,24.33
2023-04-09T02:51:35.644Z,24.15
2023-04-09T02:52:35.661Z,23.88
2023-04-09T02:53:35.700Z,23.79
2023-04-09T02:54:35.721Z,23.70
2023-04-09T02:55:35.753Z,23.49
2023-04-09T02:56:35.776Z,23.43
2023-04-09T02:57:35.802Z,23.37
2023-04-09T02:58:35.845Z,23.28
2023-04-09T02:59:35.827Z,23.23
2023-04-09T03:00:35.904Z,23.16
2023-04-09T03:01:36.064Z,23.09
2023-04-09T03:02:36.092Z,23.12
2023-04-09T03:03:35.990Z,23.10
2023-04-09T03:04:35.965Z,23.02
2023-04-09T03:05:35.975Z,22.95
2023-04-09T03:06:35.979Z,22.91
2023-04-09T03:07:35.993Z,22.88
2023-04-09T03:08:35.996Z,22.83
2023-04-09T03:09:36.056Z,22.83
2023-04-09T03:10:36.012Z,22.75
2023-04-09T03:11:36.059Z,22.74
2023-04-09T03:12:36.044Z,22.70
2023-04-09T03:13:36.052Z,22.72
2023-04-09T03:14:36.096Z,22.67
2023-04-09T03:15:36.115Z,22.73
2023-04-09T03:16:36.089Z,22.72
2023-04-09T03:17:36.102Z,22.65
2023-04-09T03:18:36.037Z,22.65
2023-04-09T03:19:36.032Z,22.62
2023-04-09T03:20:36.009Z,22.66
2023-04-09T03:21:36.010Z,22.65
2023-04-09T03:22:35.978Z,22.65
2023-04-09T03:23:35.968Z,22.63
2023-04-09T03:24:35.960Z,22.54
2023-04-09T03:25:35.944Z,22.54
2023-04-09T03:26:35.954Z,22.57
2023-04-09T03:27:35.922Z,22.62
2023-04-09T03:28:35.923Z,22.58
2023-04-09T03:29:35.930Z,22.52
2023-04-09T03:30:35.898Z,22.55
2023-04-09T03:31:35.958Z,22.55
2023-04-09T03:32:35.944Z,22.53
2023-04-09T03:33:35.881Z,22.52
2023-04-09T03:34:35.856Z,22.50
2023-04-09T03:35:35.878Z,22.58
2023-04-09T03:36:35.831Z,22.48
2023-04-09T03:37:35.871Z,22.50
2023-04-09T03:38:35.893Z,22.50
2023-04-09T03:39:35.927Z,22.50
2023-04-09T03:40:35.976Z,22.45
2023-04-09T03:41:36.003Z,22.49
2023-04-09T03:42:36.056Z,22.42
2023-04-09T03:43:36.081Z,22.42
2023-04-09T03:44:36.137Z,22.40
2023-04-09T03:45:36.144Z,22.42
2023-04-09T03:46:36.273Z,22.43
2023-04-09T03:47:36.255Z,22.40
2023-04-09T03:48:36.254Z,22.37
2023-04-09T03:49:36.276Z,22.37
2023-04-09T03:50:36.345Z,22.37
2023-04-09T03:51:36.362Z,22.40
2023-04-09T03:52:36.383Z,22.30
2023-04-09T03:53:36.452Z,22.38
2023-04-09T03:54:36.491Z,22.32
2023-04-09T03:55:36.528Z,22.29
2023-04-09T03:56:36.565Z,22.33
2023-04-09T03:57:36.605Z,22.32
2023-04-09T03:58:36.642Z,22.29
2023-04-09T03:59:36.694Z,22.31
2023-04-09T04:00:36.751Z,22.30
2023-04-09T04:01:36.865Z,22.30
2023-04-09T04:02:36.980Z,22.34
2023-04-09T04:03:37.118Z,22.36
2023-04-09T04:04:37.000Z,22.31
2023-04-09T04:05:36.971Z,22.37
2023-04-09T04:06:37.073Z,22.33
2023-04-09T04:07:37.041Z,22.31
2023-04-09T04:08:37.024Z,22.36
2023-04-09T04:09:37.016Z,22.39
2023-04-09T04:10:37.006Z,22.36
2023-04-09T04:11:36.987Z,22.37
2023-04-09T04:12:36.981Z,22.34
2023-04-09T04:13:36.972Z,22.37
2023-04-09T04:14:36.947Z,22.31
2023-04-09T04:15:36.978Z,22.39
2023-04-09T04:16:37.071Z,22.37
2023-04-09T04:17:37.180Z,22.35
2023-04-09T04:18:37.147Z,22.35
2023-04-09T04:19:37.178Z,22.40
2023-04-09T04:20:37.237Z,22.32
2023-04-09T04:21:37.297Z,22.34
2023-04-09T04:22:37.356Z,22.35
2023-04-09T04:23:37.418Z,22.34
2023-04-09T04:24:37.473Z,22.38
2023-04-09T04:25:37.517Z,22.32
2023-04-09T04:26:37.588Z,22.37
2023-04-09T04:27:37.623Z,22.38
2023-04-09T04:28:37.686Z,22.33
2023-04-09T04:29:37.767Z,22.38
2023-04-09T04:30:37.758Z,22.40
2023-04-09T04:31:37.859Z,22.36
2023-04-09T04:32:37.893Z,22.33
2023-04-09T04:33:37.908Z,22.33
2023-04-09T04:34:37.941Z,22.35
2023-04-09T04:35:38.013Z,22.39
2023-04-09T04:36:38.000Z,22.33
2023-04-09T04:37:38.044Z,22.33
2023-04-09T04:38:38.098Z,22.33
2023-04-09T04:39:38.144Z,22.34
2023-04-09T04:40:38.186Z,22.36
2023-04-09T04:41:38.259Z,22.38
2023-04-09T04:42:38.300Z,22.38
2023-04-09T04:43:38.332Z,22.39
2023-04-09T04:44:38.410Z,22.44
2023-04-09T04:45:38.480Z,22.37
2023-04-09T04:46:38.526Z,22.39
2023-04-09T04:47:38.556Z,22.37
2023-04-09T04:48:38.561Z,22.36
2023-04-09T04:49:38.581Z,22.34
2023-04-09T04:50:38.616Z,22.35
2023-04-09T04:51:38.635Z,22.37
2023-04-09T04:52:38.673Z,22.39
2023-04-09T04:53:38.700Z,22.43
2023-04-09T04:54:38.723Z,22.42
2023-04-09T04:55:38.717Z,22.42
2023-04-09T04:56:38.729Z,22.41
2023-04-09T04:57:38.701Z,22.41
2023-04-09T04:58:38.695Z,22.45
2023-04-09T04:59:38.680Z,22.48
2023-04-09T05:00:38.672Z,22.48
2023-04-09T05:01:38.724Z,22.45
2023-04-09T05:02:38.760Z,22.48
2023-04-09T05:03:38.677Z,22.41
2023-04-09T05:04:38.650Z,22.46
2023-04-09T05:05:38.629Z,22.48
2023-04-09T05:06:38.624Z,22.43
2023-04-09T05:07:38.613Z,22.46
2023-04-09T05:08:38.605Z,22.46
2023-04-09T05:09:38.635Z,22.51
2023-04-09T05:10:38.596Z,22.50
2023-04-09T05:11:38.587Z,22.51
2023-04-09T05:12:38.589Z,22.54
2023-04-09T05:13:38.560Z,22.49
2023-04-09T05:14:38.552Z,22.54
2023-04-09T05:15:38.541Z,22.54
2023-04-09T05:16:38.554Z,22.54
2023-04-09T05:17:38.584Z,22.52
2023-04-09T05:18:38.525Z,22.55
2023-04-09T05:19:38.532Z,22.52
2023-04-09T05:20:38.517Z,22.55
2023-04-09T05:21:38.507Z,22.57
2023-04-09T05:22:38.532Z,22.55
2023-04-09T05:23:38.558Z,22.54
2023-04-09T05:24:38.580Z,22.49
2023-04-09T05:25:38.629Z,22.48
2023-04-09T05:26:38.680Z,22.57
2023-04-09T05:27:38.741Z,22.57
2023-04-09T05:28:38.799Z,22.54
2023-04-09T05:29:38.875Z,22.57
2023-04-09T05:30:38.966Z,22.54
2023-04-09T05:31:38.961Z,22.50
2023-04-09T05:32:39.041Z,22.54
2023-04-09T05:33:39.032Z,22.55
2023-04-09T05:34:39.042Z,22.55
2023-04-09T05:35:39.090Z,22.56
2023-04-09T05:36:39.088Z,22.50
2023-04-09T05:37:39.131Z,22.56
2023-04-09T05:38:39.108Z,22.60
2023-04-09T05:39:39.125Z,22.55
2023-04-09T05:40:39.176Z,22.56
2023-04-09T05:41:39.292Z,22.52
2023-04-09T05:42:39.249Z,22.56
2023-04-09T05:43:39.201Z,22.58
2023-04-09T05:44:39.266Z,22.54
2023-04-09T05:45:39.341Z,22.56
2023-04-09T05:46:39.221Z,22.55
2023-04-09T05:47:39.282Z,22.53
2023-04-09T05:48:39.232Z,22.58
2023-04-09T05:49:39.253Z,22.58
2023-04-09T05:50:53.446Z,22.54
2023-04-09T05:51:40.248Z,22.58
2023-04-09T05:52:39.297Z,22.51
2023-04-09T05:53:39.231Z,22.56
2023-04-09T05:54:39.229Z,22.54
2023-04-09T05:55:39.243Z,22.58
2023-04-09T05:56:39.220Z,22.53
2023-04-09T05:57:39.325Z,22.54
2023-04-09T05:58:39.200Z,22.56
2023-04-09T05:59:39.203Z,22.59
2023-04-09T06:00:39.164Z,22.59
2023-04-09T06:01:39.194Z,22.56
2023-04-09T06:02:39.197Z,22.58
2023-04-09T06:03:39.226Z,22.59
2023-04-09T06:04:39.182Z,22.54
2023-04-09T06:05:39.137Z,22.56
2023-04-09T06:06:39.145Z,22.54
2023-04-09T06:07:39.123Z,22.56
2023-04-09T06:08:39.115Z,22.61
2023-04-09T06:09:39.096Z,22.64
2023-04-09T06:10:40.456Z,22.64
2023-04-09T06:11:39.112Z,22.62
2023-04-09T06:12:39.088Z,22.68
2023-04-09T06:13:39.088Z,22.67
2023-04-09T06:14:39.096Z,22.65
2023-04-09T06:15:39.086Z,22.67
2023-04-09T06:16:39.057Z,22.71
2023-04-09T06:17:39.091Z,22.71
2023-04-09T06:18:39.064Z,22.64
2023-04-09T06:19:39.053Z,22.68
2023-04-09T06:20:39.030Z,22.71
2023-04-09T06:21:39.054Z,22.70
2023-04-09T06:22:39.093Z,22.71
2023-04-09T06:23:39.005Z,22.68
2023-04-09T06:24:38.988Z,22.70
2023-04-09T06:25:38.995Z,22.71
2023-04-09T06:26:38.999Z,22.73
2023-04-09T06:27:39.009Z,22.70
2023-04-09T06:28:39.018Z,22.74
2023-04-09T06:29:39.019Z,22.73
2023-04-09T06:30:38.997Z,22.74
2023-04-09T06:31:39.058Z,22.74
2023-04-09T06:32:47.300Z,22.68
2023-04-09T06:33:40.005Z,22.68
2023-04-09T06:34:38.986Z,22.71
2023-04-09T06:35:38.996Z,22.71
2023-04-09T06:36:38.966Z,22.74
2023-04-09T06:37:38.932Z,22.78
2023-04-09T06:38:38.945Z,22.76
2023-04-09T06:39:42.569Z,22.78
2023-04-09T06:40:39.911Z,22.79
2023-04-09T06:41:38.924Z,22.80
2023-04-09T06:42:38.895Z,22.73
2023-04-09T06:43:38.904Z,22.76
2023-04-09T06:44:38.876Z,22.76
2023-04-09T06:45:40.969Z,22.74
2023-04-09T06:46:39.006Z,22.73
2023-04-09T06:47:38.875Z,22.76
2023-04-09T06:48:38.799Z,22.74
2023-04-09T06:49:38.808Z,22.74
2023-04-09T06:50:38.783Z,22.71
2023-04-09T06:51:38.759Z,22.74
2023-04-09T06:52:38.727Z,22.76
2023-04-09T06:53:38.905Z,22.81
2023-04-09T06:54:38.700Z,22.79
2023-04-09T06:55:38.744Z,22.76
2023-04-09T06:56:38.675Z,22.74
2023-04-09T06:57:38.693Z,22.81
2023-04-09T06:58:38.657Z,22.81
2023-04-09T06:59:38.926Z,22.75
2023-04-09T07:00:38.676Z,22.73
2023-04-09T07:01:38.700Z,22.76
2023-04-09T07:02:38.789Z,22.82
2023-04-09T07:03:38.788Z,22.80
2023-04-09T07:04:38.846Z,22.79
2023-04-09T07:05:38.672Z,22.83
2023-04-09T07:06:38.703Z,22.82
2023-04-09T07:07:38.705Z,22.78
2023-04-09T07:08:38.714Z,22.86
2023-04-09T07:09:38.724Z,22.85
2023-04-09T07:10:38.707Z,22.85
2023-04-09T07:11:38.738Z,22.83
2023-04-09T07:12:38.743Z,22.82
2023-04-09T07:13:38.745Z,22.82
2023-04-09T07:14:38.720Z,22.83
2023-04-09T07:15:40.095Z,22.89
2023-04-09T07:16:38.786Z,22.85
2023-04-09T07:17:38.743Z,22.95
2023-04-09T07:18:38.735Z,22.91
2023-04-09T07:19:38.700Z,22.89
2023-04-09T07:20:38.693Z,22.77
2023-04-09T07:21:38.686Z,22.83
2023-04-09T07:22:38.676Z,22.87
2023-04-09T07:23:38.711Z,22.86
2023-04-09T07:24:38.655Z,22.83
2023-04-09T07:25:38.638Z,22.86
2023-04-09T07:26:38.628Z,22.86
2023-04-09T07:27:38.638Z,22.85
2023-04-09T07:28:38.613Z,22.80
2023-04-09T07:29:38.595Z,22.80
2023-04-09T07:30:38.595Z,22.78
2023-04-09T07:31:38.596Z,22.85
2023-04-09T07:32:38.594Z,22.78
2023-04-09T07:33:38.577Z,22.77
2023-04-09T07:34:38.549Z,22.78
2023-04-09T07:35:38.544Z,22.78
2023-04-09T07:36:38.520Z,22.77
2023-04-09T07:37:38.507Z,22.78
2023-04-09T07:38:38.500Z,22.82
2023-04-09T07:39:38.477Z,22.89
2023-04-09T07:40:38.474Z,22.80
2023-04-09T07:41:38.461Z,22.76
2023-04-09T07:42:38.456Z,22.77
2023-04-09T07:43:38.481Z,22.78
2023-04-09T07:44:38.430Z,22.74
2023-04-09T07:45:38.407Z,22.78
2023-04-09T07:46:38.486Z,22.86
2023-04-09T07:47:38.398Z,22.87
2023-04-09T07:48:38.404Z,22.80
2023-04-09T07:49:38.365Z,22.85
2023-04-09T07:50:38.363Z,22.82
2023-04-09T07:51:38.347Z,22.85
2023-04-09T07:52:38.341Z,22.77
2023-04-09T07:53:38.341Z,22.70
2023-04-09T07:54:38.349Z,22.80
2023-04-09T07:55:38.303Z,22.65
2023-04-09T07:56:38.288Z,22.65
2023-04-09T07:57:38.264Z,22.71
2023-04-09T07:58:38.260Z,22.78
2023-04-09T07:59:38.262Z,22.74
2023-04-09T08:00:38.240Z,22.71
2023-04-09T08:01:38.290Z,22.69
2023-04-09T08:02:38.360Z,22.71
2023-04-09T08:03:38.437Z,22.74
2023-04-09T08:04:38.354Z,22.71
2023-04-09T08:05:38.186Z,22.69
2023-04-09T08:06:38.167Z,22.76
2023-04-09T08:07:38.138Z,22.70
2023-04-09T08:08:38.156Z,22.74
2023-04-09T08:09:38.120Z,22.59
2023-04-09T08:10:38.122Z,22.71
2023-04-09T08:11:38.104Z,22.68
2023-04-09T08:12:38.098Z,22.68
2023-04-09T08:13:38.106Z,22.71
2023-04-09T08:14:38.085Z,22.73
2023-04-09T08:15:38.062Z,22.74
2023-04-09T08:16:38.107Z,22.83
2023-04-09T08:17:38.074Z,22.70
2023-04-09T08:18:38.054Z,22.70
2023-04-09T08:19:39.850Z,22.70
2023-04-09T08:20:37.990Z,22.65
2023-04-09T08:21:37.995Z,22.65
2023-04-09T08:22:37.974Z,22.70
2023-04-09T08:23:37.969Z,22.58
2023-04-09T08:24:37.977Z,22.65
2023-04-09T08:25:37.929Z,22.64
2023-04-09T08:26:37.920Z,22.64
2023-04-09T08:27:37.928Z,22.64
2023-04-09T08:28:37.901Z,22.64
2023-04-09T08:29:37.940Z,22.62
2023-04-09T08:30:37.885Z,22.64
2023-04-09T08:31:37.960Z,22.59
2023-04-09T08:32:37.889Z,22.59
2023-04-09T08:33:37.876Z,22.59
2023-04-09T08:34:37.837Z,22.62
2023-04-09T08:35:37.836Z,22.61
2023-04-09T08:36:37.864Z,22.56
2023-04-09T08:37:37.794Z,22.66
2023-04-09T08:38:37.785Z,22.55
2023-04-09T08:39:37.775Z,22.56
2023-04-09T08:40:37.770Z,22.56
2023-04-09T08:41:37.756Z,22.58
2023-04-09T08:42:37.732Z,22.49
2023-04-09T08:43:53.237Z,22.43
2023-04-09T08:44:38.712Z,22.54
2023-04-09T08:45:37.718Z,22.56
2023-04-09T08:46:37.703Z,22.71
2023-04-09T08:47:37.731Z,22.70
2023-04-09T08:48:37.794Z,22.58
2023-04-09T08:49:37.665Z,22.60
2023-04-09T08:50:37.673Z,22.68
2023-04-09T08:51:37.656Z,22.65
2023-04-09T08:52:37.625Z,22.62
2023-04-09T08:53:37.614Z,22.58
2023-04-09T08:54:37.650Z,22.67
2023-04-09T08:55:37.597Z,22.55
2023-04-09T08:56:37.582Z,22.57
2023-04-09T08:57:37.568Z,22.65
2023-04-09T08:58:37.554Z,22.65
2023-04-09T08:59:37.559Z,22.63
2023-04-09T09:00:37.626Z,22.65
2023-04-09T09:01:37.699Z,22.63
2023-04-09T09:02:37.764Z,22.61
2023-04-09T09:03:37.747Z,22.62
2023-04-09T09:04:37.757Z,22.62
2023-04-09T09:05:37.805Z,22.61
2023-04-09T09:06:37.834Z,22.71
2023-04-09T09:07:37.874Z,22.65
2023-04-09T09:08:37.945Z,22.65
2023-04-09T09:09:37.968Z,22.66
2023-04-09T09:10:38.009Z,22.66
2023-04-09T09:11:38.058Z,22.63
2023-04-09T09:12:38.112Z,22.69
2023-04-09T09:13:38.129Z,22.75
2023-04-09T09:14:38.179Z,22.70
2023-04-09T09:15:38.228Z,22.77
2023-04-09T09:16:38.287Z,22.74
2023-04-09T09:17:38.341Z,22.82
2023-04-09T09:18:38.319Z,22.76
2023-04-09T09:19:38.340Z,22.76
2023-04-09T09:20:38.367Z,22.82
2023-04-09T09:21:38.392Z,22.78
2023-04-09T09:22:38.409Z,22.83
2023-04-09T09:23:38.424Z,22.78
2023-04-09T09:24:38.438Z,22.83
2023-04-09T09:25:38.445Z,22.86
2023-04-09T09:26:38.460Z,22.89
2023-04-09T09:27:38.474Z,22.89
2023-04-09T09:28:38.497Z,22.94
2023-04-09T09:29:38.503Z,22.98
2023-04-09T09:30:38.576Z,22.97
2023-04-09T09:31:38.551Z,22.94
2023-04-09T09:32:38.618Z,22.97
2023-04-09T09:33:38.628Z,22.97
2023-04-09T09:34:38.639Z,22.99
2023-04-09T09:35:38.687Z,22.97
2023-04-09T09:36:38.714Z,23.00
2023-04-09T09:37:38.752Z,23.02
2023-04-09T09:38:38.765Z,22.99
2023-04-09T09:39:38.809Z,23.04
2023-04-09T09:40:38.812Z,22.98
2023-04-09T09:41:38.855Z,23.06
2023-04-09T09:42:38.890Z,23.09
2023-04-09T09:43:38.905Z,23.07
2023-04-09T09:44:38.927Z,23.06
2023-04-09T09:45:38.948Z,23.03
2023-04-09T09:46:39.015Z,23.06
2023-04-09T09:47:39.057Z,23.09
2023-04-09T09:48:38.999Z,23.06
2023-04-09T09:49:39.030Z,23.08
2023-04-09T09:50:39.047Z,23.06
2023-04-09T09:51:39.063Z,23.08
2023-04-09T09:52:39.061Z,23.11
2023-04-09T09:53:39.105Z,23.13
2023-04-09T09:54:39.084Z,23.08
2023-04-09T09:55:39.112Z,23.07
2023-04-09T09:56:39.137Z,23.10
2023-04-09T09:57:39.128Z,23.13
2023-04-09T09:58:39.143Z,23.16
2023-04-09T09:59:39.175Z,23.16
2023-04-09T10:00:39.199Z,23.18
2023-04-09T10:01:39.230Z,23.15
2023-04-09T10:02:39.296Z,23.13
2023-04-09T10:03:39.244Z,23.13
2023-04-09T10:04:39.274Z,23.16
2023-04-09T10:05:39.276Z,23.18
2023-04-09T10:06:39.282Z,23.16
2023-04-09T10:07:39.281Z,23.14
2023-04-09T10:08:39.294Z,23.15
2023-04-09T10:09:39.304Z,23.20
2023-04-09T10:10:39.335Z,23.19
2023-04-09T10:11:39.317Z,23.21
2023-04-09T10:12:39.322Z,23.23
2023-04-09T10:13:39.325Z,23.25
2023-04-09T10:14:39.340Z,23.25
2023-04-09T10:15:39.365Z,23.21
2023-04-09T10:16:39.345Z,23.23
2023-04-09T10:17:39.370Z,23.28
2023-04-09T10:18:39.358Z,23.22
2023-04-09T10:19:39.372Z,23.25
2023-04-09T10:20:39.377Z,23.25
2023-04-09T10:21:39.887Z,23.22
2023-04-09T10:22:39.388Z,23.24
2023-04-09T10:23:39.370Z,23.24
2023-04-09T10:24:39.370Z,23.25
2023-04-09T10:25:39.372Z,23.33
2023-04-09T10:26:39.346Z,23.31
2023-04-09T10:27:39.316Z,23.25
2023-04-09T10:28:39.302Z,23.33
2023-04-09T10:29:39.269Z,23.34
2023-04-09T10:30:39.240Z,23.40
2023-04-09T10:31:39.308Z,23.41
2023-04-09T10:32:39.205Z,23.39
2023-04-09T10:33:39.170Z,23.41
2023-04-09T10:34:39.163Z,23.39
2023-04-09T10:35:39.172Z,23.43
2023-04-09T10:36:39.100Z,23.45
2023-04-09T10:37:39.080Z,23.45
2023-04-09T10:38:39.043Z,23.45
2023-04-09T10:39:39.021Z,23.46
2023-04-09T10:40:38.993Z,23.47
2023-04-09T10:41:38.981Z,23.46
2023-04-09T10:42:38.936Z,23.47
2023-04-09T10:43:38.933Z,23.55
2023-04-09T10:44:38.889Z,23.52
2023-04-09T10:45:38.860Z,23.49
2023-04-09T10:46:38.904Z,23.44
2023-04-09T10:47:38.817Z,23.46
2023-04-09T10:48:38.769Z,23.44
2023-04-09T10:49:38.749Z,23.41
2023-04-09T10:50:38.721Z,23.42
2023-04-09T10:51:38.718Z,23.40
2023-04-09T10:52:38.669Z,23.37
2023-04-09T10:53:38.646Z,23.39
2023-04-09T10:54:38.613Z,23.40
2023-04-09T10:55:38.616Z,23.39
2023-04-09T10:56:38.564Z,23.37
2023-04-09T10:57:38.535Z,23.41
2023-04-09T10:58:38.505Z,23.41
2023-04-09T10:59:38.461Z,23.41
2023-04-09T11:00:38.480Z,23.44
2023-04-09T11:01:38.548Z,23.41
2023-04-09T11:02:38.619Z,23.38
2023-04-09T11:03:38.462Z,23.45
2023-04-09T11:04:38.470Z,23.40
2023-04-09T11:05:38.509Z,23.44
2023-04-09T11:06:38.458Z,23.38
2023-04-09T11:07:38.509Z,23.41
2023-04-09T11:08:38.553Z,23.41
2023-04-09T11:09:38.494Z,23.37
2023-04-09T11:10:38.535Z,23.44
2023-04-09T11:11:38.492Z,23.44
2023-04-09T11:12:38.453Z,23.48
2023-04-09T11:13:38.413Z,23.47
2023-04-09T11:14:38.390Z,23.48
2023-04-09T11:15:38.361Z,23.57
2023-04-09T11:16:38.339Z,23.54
2023-04-09T11:17:38.286Z,23.57
2023-04-09T11:18:38.243Z,23.60
2023-04-09T11:19:38.225Z,23.58
2023-04-09T11:20:38.223Z,23.63
2023-04-09T11:21:38.259Z,23.64
2023-04-09T11:22:38.279Z,23.71
2023-04-09T11:23:38.306Z,23.72
2023-04-09T11:24:38.348Z,23.69
2023-04-09T11:25:38.385Z,23.71
2023-04-09T11:26:38.422Z,23.72
2023-04-09T11:27:38.436Z,23.68
2023-04-09T11:28:38.501Z,23.71
2023-04-09T11:29:38.552Z,23.70
2023-04-09T11:30:38.555Z,23.72
2023-04-09T11:31:38.695Z,23.74
2023-04-09T11:32:38.726Z,23.75
2023-04-09T11:33:38.653Z,23.74
2023-04-09T11:34:38.681Z,23.73
2023-04-09T11:35:38.746Z,23.70
2023-04-09T11:36:38.744Z,23.71
2023-04-09T11:37:38.771Z,23.75
2023-04-09T11:38:38.789Z,23.74
2023-04-09T11:39:38.814Z,23.74
2023-04-09T11:40:38.829Z,23.80
2023-04-09T11:41:38.878Z,23.75
2023-04-09T11:42:38.941Z,23.74
2023-04-09T11:43:38.927Z,23.70
2023-04-09T11:44:38.951Z,23.68
2023-04-09T11:45:38.999Z,23.67
2023-04-09T11:46:39.100Z,23.61
2023-04-09T11:47:39.058Z,23.60
2023-04-09T11:48:39.050Z,23.52
2023-04-09T11:49:39.084Z,23.47
2023-04-09T11:50:39.108Z,23.50
2023-04-09T11:51:39.117Z,23.53
2023-04-09T11:52:39.112Z,23.54
2023-04-09T11:53:39.149Z,23.53
2023-04-09T11:54:39.131Z,23.52
2023-04-09T11:55:39.158Z,23.49
2023-04-09T11:56:39.162Z,23.51
2023-04-09T11:57:39.139Z,23.51
2023-04-09T11:58:39.144Z,23.47
2023-04-09T11:59:39.131Z,23.46
2023-04-09T12:00:39.157Z,23.43
2023-04-09T12:01:39.230Z,23.42
2023-04-09T12:02:39.211Z,23.37
2023-04-09T12:03:39.208Z,23.42
2023-04-09T12:04:39.279Z,23.41
2023-04-09T12:05:41.216Z,23.37
2023-04-09T12:06:39.127Z,23.36
2023-04-09T12:07:39.599Z,23.45
2023-04-09T12:08:39.042Z,23.45
2023-04-09T12:09:39.010Z,23.39
2023-04-09T12:10:38.986Z,23.41
2023-04-09T12:11:38.959Z,23.41
2023-04-09T12:12:38.900Z,23.46
2023-04-09T12:13:38.869Z,23.46
2023-04-09T12:14:38.832Z,23.55
2023-04-09T12:15:38.780Z,23.52
2023-04-09T12:16:38.804Z,23.55
2023-04-09T12:17:38.723Z,23.55
2023-04-09T12:18:38.669Z,23.59
2023-04-09T12:19:38.629Z,23.59
2023-04-09T12:20:38.608Z,23.69
2023-04-09T12:21:38.575Z,23.61
2023-04-09T12:22:38.564Z,23.59
2023-04-09T12:23:38.487Z,23.64
2023-04-09T12:24:38.491Z,23.62
2023-04-09T12:25:38.442Z,23.62
2023-04-09T12:26:38.404Z,23.61
2023-04-09T12:27:38.359Z,23.61
2023-04-09T12:28:38.318Z,23.58
2023-04-09T12:29:38.274Z,23.54
2023-04-09T12:30:38.254Z,23.61
2023-04-09T12:31:38.235Z,23.54
2023-04-09T12:32:38.213Z,23.60
2023-04-09T12:33:38.136Z,23.60
2023-04-09T12:34:38.113Z,23.61
2023-04-09T12:35:38.367Z,23.66
2023-04-09T12:36:38.032Z,23.66
2023-04-09T12:37:38.003Z,23.60
2023-04-09T12:38:37.983Z,23.62
2023-04-09T12:39:37.944Z,23.61
2023-04-09T12:40:37.893Z,23.63
2023-04-09T12:41:37.860Z,23.66
2023-04-09T12:42:37.842Z,23.66
2023-04-09T12:43:37.802Z,23.64
2023-04-09T12:44:37.762Z,23.66
2023-04-09T12:45:37.745Z,23.64
2023-04-09T12:46:37.711Z,23.60
2023-04-09T12:47:37.758Z,23.59
2023-04-09T12:48:37.635Z,23.60
2023-04-09T12:49:37.592Z,23.60
2023-04-09T12:50:37.568Z,23.67
2023-04-09T12:51:37.546Z,23.65
2023-04-09T12:52:37.498Z,23.65